Home   Weather   France   Besançon   Past weeks
Flag for France

Past Weather in Besançon, Doubs, France — Yesterday and Last 2 Weeks

Currently: 70 °F. Sunny. (Weather station: Dole Tavaux, France). See more current weather

Past Weather in Besançon — Graph

°F

Besançon Temperature Yesterday

Maximum temperature yesterday: 79 °F (at 4:30 pm)
Minimum temperature yesterday: 61 °F (at 5:00 am)
Average temperature yesterday: 69 °F

High & Low Weather Summary for the Past Weeks

 TemperatureHumidityPressure
High90 °F (Jul 9, 5:00 pm)100% (Jul 2, 9:00 pm)30.18 "Hg (Jul 2, 9:00 pm)
Low50 °F (Jul 8, 4:30 am)36% (Jul 8, 1:00 pm)29.77 "Hg (Jul 6, 1:00 am)
Average68 °F77%29.97 "Hg
* Reported Jul 2 9:00 pm — Jul 17 9:30 pm, Besançon. Weather by CustomWeather, © 2024

Note: Actual official high and low records may vary slightly from our data, if they occured in-between our weather recording intervals... More about our weather records

Besançon Weather History for the Previous 24 Hours

Scroll right to see more
 ConditionsComfort  
Time TempWeatherWind HumidityBarometerVisibility
9:30 pm
Wed, Jul 17
72 °FSunny.7 mph61%30.12 "Hg10 mi
9:00 pm75 °FSunny.7 mph54%30.12 "Hg10 mi
8:30 pm77 °FSunny.7 mph47%30.12 "Hg10 mi
8:00 pm79 °FSunny.8 mph45%30.12 "Hg10 mi
7:30 pm81 °FSunny.9 mph42%30.12 "Hg10 mi
7:00 pm81 °FPassing clouds.7 mph39%30.09 "HgN/A
6:30 pm81 °FSunny.8 mph39%30.09 "Hg10 mi
6:00 pm81 °FPassing clouds.7 mph39%30.12 "HgN/A
5:30 pm81 °FPassing clouds.8 mph39%30.12 "HgN/A
5:00 pm81 °FPassing clouds.8 mph39%30.12 "HgN/A
4:30 pm79 °FPassing clouds.7 mph45%30.12 "HgN/A
4:00 pm81 °FSunny.6 mph39%30.12 "Hg10 mi
3:00 pm79 °FPassing clouds.6 mph45%30.12 "HgN/A
2:30 pm79 °FPassing clouds.6 mph48%30.15 "HgN/A
2:00 pm77 °FBroken clouds.8 mph47%30.15 "HgN/A
1:30 pm77 °FPassing clouds.7 mph47%30.15 "HgN/A
1:00 pm77 °FBroken clouds.7 mph47%30.15 "HgN/A
12:30 pm77 °FPartly sunny.6 mph51%30.15 "HgN/A
12:00 pm75 °FScattered clouds.6 mph54%30.15 "HgN/A
11:30 am73 °FScattered clouds.6 mph57%30.15 "HgN/A
11:00 am73 °FPassing clouds.5 mph57%30.15 "HgN/A
10:30 am73 °FPassing clouds.5 mph57%30.15 "HgN/A
10:00 am72 °FPassing clouds.5 mph61%30.15 "HgN/A
9:30 am72 °FSunny.2 mph65%30.15 "Hg10 mi
9:00 am70 °FPassing clouds.2 mph69%30.18 "HgN/A
8:30 am66 °FPartly sunny.2 mph78%30.15 "HgN/A
8:00 am64 °FSunny.2 mph83%30.15 "Hg10 mi
7:30 am63 °FSunny.2 mph83%30.15 "Hg10 mi
7:00 am61 °FScattered clouds.2 mph94%30.15 "HgN/A
6:30 am59 °FClear.3 mph94%30.15 "Hg10 mi
6:00 am59 °FClear.3 mph94%30.12 "Hg10 mi
5:30 am59 °FClear.3 mph94%30.12 "Hg10 mi
5:00 am59 °FClear.3 mph94%30.12 "Hg10 mi
4:00 am61 °FClear.5 mph94%30.12 "Hg10 mi
3:30 am61 °FClear.2 mph94%30.12 "Hg10 mi
3:00 am61 °FClear.2 mph94%30.12 "Hg10 mi
2:30 am61 °FClear.3 mph94%30.12 "Hg10 mi
2:00 am61 °FClear.2 mph94%30.12 "Hg10 mi
1:30 am61 °FClear.2 mph94%30.12 "Hg10 mi
1:00 am61 °FClear.2 mph94%30.12 "Hg10 mi
12:30 am61 °FClear.3 mph94%30.12 "Hg10 mi
12:00 am63 °FClear.2 mph83%30.09 "Hg10 mi
11:30 pm
Tue, Jul 16
63 °FClear.2 mph88%30.09 "Hg10 mi
11:00 pm64 °FPassing clouds.3 mph83%30.09 "HgN/A
10:30 pm66 °FClear.3 mph78%30.09 "Hg10 mi
10:00 pm70 °FRain. Clear.3 mph60%30.09 "HgN/A
Weather by CustomWeather, © 2024

See weather overview